createdAt,value
2018-09-29T00:00:30.809Z,6.46
2018-09-29T00:01:30.779Z,6.48
2018-09-29T00:02:30.768Z,6.38
2018-09-29T00:03:30.783Z,6.44
2018-09-29T00:04:30.748Z,6.44
2018-09-29T00:05:30.737Z,6.38
2018-09-29T00:06:30.756Z,6.41
2018-09-29T00:07:30.717Z,6.37
2018-09-29T00:08:30.702Z,6.37
2018-09-29T00:09:30.709Z,6.38
2018-09-29T00:10:30.680Z,6.41
2018-09-29T00:11:30.685Z,6.38
2018-09-29T00:12:30.674Z,6.36
2018-09-29T00:13:30.664Z,6.34
2018-09-29T00:14:30.639Z,6.31
2018-09-29T00:15:30.627Z,6.27
2018-09-29T00:16:30.621Z,6.21
2018-09-29T00:17:30.624Z,6.22
2018-09-29T00:18:30.595Z,6.27
2018-09-29T00:19:30.584Z,6.28
2018-09-29T00:20:30.573Z,6.28
2018-09-29T00:21:30.562Z,6.31
2018-09-29T00:22:30.566Z,6.27
2018-09-29T00:23:30.551Z,6.28
2018-09-29T00:24:30.529Z,6.15
2018-09-29T00:25:30.520Z,6.12
2018-09-29T00:26:30.519Z,6.18
2018-09-29T00:27:30.498Z,6.19
2018-09-29T00:28:30.505Z,6.19
2018-09-29T00:29:30.491Z,6.17
2018-09-29T00:30:30.464Z,6.15
2018-09-29T00:31:30.459Z,6.15
2018-09-29T00:32:30.444Z,6.14
2018-09-29T00:33:30.434Z,6.12
2018-09-29T00:34:30.446Z,6.12
2018-09-29T00:35:30.412Z,6.11
2018-09-29T00:36:30.400Z,6.00
2018-09-29T00:37:30.388Z,6.03
2018-09-29T00:38:30.378Z,6.00
2018-09-29T00:39:30.366Z,6.11
2018-09-29T00:40:30.370Z,6.01
2018-09-29T00:41:30.349Z,6.03
2018-09-29T00:42:30.335Z,5.96
2018-09-29T00:43:30.324Z,6.00
2018-09-29T00:44:30.326Z,5.97
2018-09-29T00:45:30.305Z,5.96
2018-09-29T00:46:30.290Z,5.99
2018-09-29T00:47:30.279Z,5.86
2018-09-29T00:48:30.271Z,5.94
2018-09-29T00:49:30.271Z,5.91
2018-09-29T00:50:30.261Z,5.86
2018-09-29T00:51:30.239Z,5.90
2018-09-29T00:52:30.228Z,5.86
2018-09-29T00:53:30.215Z,5.89
2018-09-29T00:54:30.205Z,5.96
2018-09-29T00:55:30.207Z,5.86
2018-09-29T00:56:30.188Z,5.90
2018-09-29T00:57:30.172Z,5.81
2018-09-29T00:58:30.179Z,5.71
2018-09-29T00:59:30.151Z,5.71
2018-09-29T01:00:30.153Z,5.65
2018-09-29T01:01:30.144Z,5.60
2018-09-29T01:02:30.118Z,5.68
2018-09-29T01:03:30.147Z,5.60
2018-09-29T01:04:30.098Z,5.63
2018-09-29T01:05:30.085Z,5.54
2018-09-29T01:06:30.088Z,5.56
2018-09-29T01:07:30.063Z,5.46
2018-09-29T01:08:30.054Z,5.46
2018-09-29T01:09:30.042Z,5.49
2018-09-29T01:10:30.030Z,5.54
2018-09-29T01:11:30.055Z,5.51
2018-09-29T01:12:30.010Z,5.56
2018-09-29T01:13:29.998Z,5.51
2018-09-29T01:14:29.987Z,5.60
2018-09-29T01:15:29.977Z,5.54
2018-09-29T01:16:29.979Z,5.60
2018-09-29T01:17:29.967Z,5.53
2018-09-29T01:18:29.944Z,5.58
2018-09-29T01:19:29.933Z,5.54
2018-09-29T01:20:29.922Z,5.54
2018-09-29T01:21:29.914Z,5.45
2018-09-29T01:22:29.933Z,5.56
2018-09-29T01:23:29.897Z,5.43
2018-09-29T01:24:29.878Z,5.45
2018-09-29T01:25:29.885Z,5.45
2018-09-29T01:26:29.858Z,5.46
2018-09-29T01:27:29.851Z,5.53
2018-09-29T01:28:29.874Z,5.48
2018-09-29T01:29:29.852Z,5.48
2018-09-29T01:30:29.814Z,5.42
2018-09-29T01:31:29.803Z,5.42
2018-09-29T01:32:29.792Z,5.43
2018-09-29T01:33:29.783Z,5.38
2018-09-29T01:34:29.786Z,5.35
2018-09-29T01:35:29.772Z,5.35
2018-09-29T01:36:29.748Z,5.40
2018-09-29T01:37:29.738Z,5.36
2018-09-29T01:38:29.727Z,5.38
2018-09-29T01:39:29.740Z,5.36
2018-09-29T01:40:29.706Z,5.35
2018-09-29T01:41:29.694Z,5.40
2018-09-29T01:42:29.684Z,5.33
2018-09-29T01:43:29.673Z,5.30
2018-09-29T01:44:29.666Z,5.21
2018-09-29T01:45:29.687Z,5.24
2018-09-29T01:46:29.645Z,5.21
2018-09-29T01:47:29.650Z,5.28
2018-09-29T01:48:29.618Z,5.25
2018-09-29T01:49:29.607Z,5.20
2018-09-29T01:50:29.618Z,5.28
2018-09-29T01:51:29.591Z,5.12
2018-09-29T01:52:29.575Z,5.12
2018-09-29T01:53:29.565Z,5.17
2018-09-29T01:54:29.554Z,5.10
2018-09-29T01:55:29.544Z,5.17
2018-09-29T01:56:29.566Z,5.21
2018-09-29T01:57:29.520Z,5.13
2018-09-29T01:58:29.509Z,5.21
2018-09-29T01:59:29.498Z,5.15
2018-09-29T02:00:29.487Z,5.20
2018-09-29T02:01:29.477Z,5.20
2018-09-29T02:02:29.480Z,5.15
2018-09-29T02:03:29.453Z,5.10
2018-09-29T02:04:29.443Z,5.10
2018-09-29T02:05:29.434Z,5.06
2018-09-29T02:06:29.422Z,5.09
2018-09-29T02:07:29.426Z,5.04
2018-09-29T02:08:29.400Z,5.06
2018-09-29T02:09:29.392Z,5.07
2018-09-29T02:10:29.377Z,5.10
2018-09-29T02:11:29.367Z,5.07
2018-09-29T02:12:29.371Z,5.13
2018-09-29T02:13:29.345Z,5.02
2018-09-29T02:14:29.338Z,5.10
2018-09-29T02:15:29.323Z,4.99
2018-09-29T02:16:29.313Z,5.04
2018-09-29T02:17:29.315Z,4.97
2018-09-29T02:18:29.291Z,5.04
2018-09-29T02:19:29.280Z,5.04
2018-09-29T02:20:29.269Z,4.97
2018-09-29T02:21:29.258Z,4.94
2018-09-29T02:22:29.266Z,4.96
2018-09-29T02:23:29.237Z,4.99
2018-09-29T02:24:29.264Z,4.91
2018-09-29T02:25:29.214Z,4.99
2018-09-29T02:26:29.206Z,4.94
2018-09-29T02:27:29.194Z,4.94
2018-09-29T02:28:29.195Z,4.91
2018-09-29T02:29:29.185Z,4.89
2018-09-29T02:30:29.165Z,4.89
2018-09-29T02:31:29.149Z,4.88
2018-09-29T02:32:29.142Z,4.92
2018-09-29T02:33:29.126Z,4.91
2018-09-29T02:34:29.136Z,4.88
2018-09-29T02:35:29.105Z,4.89
2018-09-29T02:36:29.112Z,4.88
2018-09-29T02:37:29.083Z,4.86
2018-09-29T02:38:29.072Z,4.85
2018-09-29T02:39:29.062Z,4.78
2018-09-29T02:40:29.064Z,4.73
2018-09-29T02:41:29.040Z,4.75
2018-09-29T02:42:29.040Z,4.85
2018-09-29T02:43:29.018Z,4.84
2018-09-29T02:44:29.007Z,4.77
2018-09-29T02:45:29.011Z,4.82
2018-09-29T02:46:28.985Z,4.86
2018-09-29T02:47:28.974Z,4.75
2018-09-29T02:48:28.966Z,4.77
2018-09-29T02:49:28.954Z,4.77
2018-09-29T02:50:28.957Z,4.70
2018-09-29T02:51:28.930Z,4.72
2018-09-29T02:52:28.919Z,4.73
2018-09-29T02:53:28.908Z,4.70
2018-09-29T02:54:28.897Z,4.73
2018-09-29T02:55:28.908Z,4.80
2018-09-29T02:56:28.879Z,4.59
2018-09-29T02:57:28.867Z,4.58
2018-09-29T02:58:28.856Z,4.62
2018-09-29T02:59:28.844Z,4.70
2018-09-29T03:00:28.832Z,4.66
2018-09-29T03:01:28.834Z,4.60
2018-09-29T03:02:28.809Z,4.62
2018-09-29T03:03:28.801Z,4.58
2018-09-29T03:04:28.787Z,4.55
2018-09-29T03:05:28.777Z,4.55
2018-09-29T03:06:28.808Z,4.60
2018-09-29T03:07:28.755Z,4.52
2018-09-29T03:08:28.744Z,4.55
2018-09-29T03:09:28.733Z,4.47
2018-09-29T03:10:28.723Z,4.54
2018-09-29T03:11:28.712Z,4.52
2018-09-29T03:12:28.713Z,4.48
2018-09-29T03:13:28.692Z,4.48
2018-09-29T03:14:28.680Z,4.45
2018-09-29T03:15:28.669Z,4.48
2018-09-29T03:16:28.658Z,4.51
2018-09-29T03:17:28.661Z,4.52
2018-09-29T03:18:28.635Z,4.54
2018-09-29T03:19:28.641Z,4.54
2018-09-29T03:20:28.614Z,4.52
2018-09-29T03:21:28.602Z,4.54
2018-09-29T03:22:28.592Z,4.48
2018-09-29T03:23:28.581Z,4.45
2018-09-29T03:24:28.589Z,4.51
2018-09-29T03:25:28.559Z,4.45
2018-09-29T03:26:28.548Z,4.47
2018-09-29T03:27:28.552Z,4.40
2018-09-29T03:28:28.529Z,4.42
2018-09-29T03:29:28.516Z,4.41
2018-09-29T03:30:28.504Z,4.42
2018-09-29T03:31:28.590Z,4.45
2018-09-29T03:32:28.483Z,4.40
2018-09-29T03:33:28.477Z,4.42
2018-09-29T03:34:28.463Z,4.42
2018-09-29T03:35:28.450Z,4.36
2018-09-29T03:36:28.437Z,4.27
2018-09-29T03:37:28.445Z,4.33
2018-09-29T03:38:28.418Z,4.32
2018-09-29T03:39:28.421Z,4.37
2018-09-29T03:40:28.396Z,4.29
2018-09-29T03:41:28.384Z,4.26
2018-09-29T03:42:28.374Z,4.29
2018-09-29T03:43:28.361Z,4.29
2018-09-29T03:44:28.365Z,4.29
2018-09-29T03:45:28.388Z,4.27
2018-09-29T03:46:28.920Z,4.20
2018-09-29T03:47:28.323Z,4.27
2018-09-29T03:48:28.308Z,4.26
2018-09-29T03:49:28.311Z,4.24
2018-09-29T03:50:28.298Z,4.26
2018-09-29T03:51:28.276Z,4.27
2018-09-29T03:52:28.264Z,4.22
2018-09-29T03:53:28.314Z,4.20
2018-09-29T03:54:28.262Z,4.27
2018-09-29T03:55:28.233Z,4.27
2018-09-29T03:56:28.222Z,4.23
2018-09-29T03:57:28.213Z,4.24
2018-09-29T03:58:28.220Z,4.24
2018-09-29T03:59:28.189Z,4.12
2018-09-29T04:00:28.200Z,4.23
2018-09-29T04:01:28.194Z,4.08
2018-09-29T04:02:28.156Z,4.11
2018-09-29T04:03:28.145Z,4.12
2018-09-29T04:04:28.134Z,4.18
2018-09-29T04:05:28.124Z,4.15
2018-09-29T04:06:28.160Z,4.11
2018-09-29T04:07:28.102Z,4.12
2018-09-29T04:08:28.094Z,4.05
2018-09-29T04:09:28.081Z,4.11
2018-09-29T04:10:28.083Z,4.14
2018-09-29T04:11:28.071Z,4.04
2018-09-29T04:12:28.048Z,4.12
2018-09-29T04:13:28.036Z,4.14
2018-09-29T04:14:28.025Z,4.12
2018-09-29T04:15:28.017Z,4.18
2018-09-29T04:16:28.045Z,4.14
2018-09-29T04:17:27.991Z,4.08
2018-09-29T04:18:27.981Z,4.18
2018-09-29T04:19:27.990Z,4.02
2018-09-29T04:20:27.962Z,4.04
2018-09-29T04:21:27.952Z,4.16
2018-09-29T04:22:27.951Z,4.02
2018-09-29T04:23:27.926Z,4.08
2018-09-29T04:24:27.915Z,4.09
2018-09-29T04:25:27.904Z,4.14
2018-09-29T04:26:27.894Z,4.09
2018-09-29T04:27:27.911Z,4.05
2018-09-29T04:28:27.883Z,4.12
2018-09-29T04:29:27.862Z,4.09
2018-09-29T04:30:27.851Z,4.11
2018-09-29T04:31:27.839Z,4.05
2018-09-29T04:32:27.832Z,4.02
2018-09-29T04:33:27.834Z,4.08
2018-09-29T04:34:27.805Z,4.05
2018-09-29T04:35:27.793Z,4.04
2018-09-29T04:36:27.782Z,3.94
2018-09-29T04:37:27.776Z,3.98
2018-09-29T04:38:27.762Z,4.04
2018-09-29T04:39:27.761Z,3.97
2018-09-29T04:40:27.740Z,3.96
2018-09-29T04:41:27.739Z,4.02
2018-09-29T04:42:27.718Z,3.98
2018-09-29T04:43:27.708Z,4.02
2018-09-29T04:44:27.696Z,3.93
2018-09-29T04:45:27.695Z,3.98
2018-09-29T04:46:27.674Z,3.97
2018-09-29T04:47:27.662Z,3.94
2018-09-29T04:48:27.652Z,3.91
2018-09-29T04:49:27.661Z,3.88
2018-09-29T04:50:27.630Z,3.87
2018-09-29T04:51:27.638Z,3.94
2018-09-29T04:52:27.609Z,3.86
2018-09-29T04:53:27.598Z,3.80
2018-09-29T04:54:27.587Z,3.84
2018-09-29T04:55:27.592Z,3.84
2018-09-29T04:56:27.567Z,3.84
2018-09-29T04:57:27.553Z,3.90
2018-09-29T04:58:27.543Z,3.87
2018-09-29T04:59:27.538Z,3.88
2018-09-29T05:00:27.525Z,3.80
2018-09-29T05:01:27.523Z,3.79
2018-09-29T05:02:27.499Z,3.86
2018-09-29T05:03:27.489Z,3.88
2018-09-29T05:04:27.477Z,3.90
2018-09-29T05:05:27.470Z,3.88
2018-09-29T05:06:27.513Z,3.84
2018-09-29T05:07:27.445Z,3.75
2018-09-29T05:08:27.435Z,3.86
2018-09-29T05:09:27.424Z,3.72
2018-09-29T05:10:27.411Z,3.75
2018-09-29T05:11:27.420Z,3.70
2018-09-29T05:12:27.395Z,3.72
2018-09-29T05:13:27.379Z,3.75
2018-09-29T05:14:27.369Z,3.70
2018-09-29T05:15:27.357Z,3.73
2018-09-29T05:16:27.349Z,3.72
2018-09-29T05:17:27.350Z,3.66
2018-09-29T05:18:27.328Z,3.69
2018-09-29T05:19:27.313Z,3.72
2018-09-29T05:20:27.304Z,3.68
2018-09-29T05:21:27.295Z,3.69
2018-09-29T05:22:27.299Z,3.70
2018-09-29T05:23:27.270Z,3.66
2018-09-29T05:24:27.260Z,3.69
2018-09-29T05:25:27.249Z,3.75
2018-09-29T05:26:27.239Z,3.72
2018-09-29T05:27:27.228Z,3.70
2018-09-29T05:28:27.229Z,3.70
2018-09-29T05:29:27.205Z,3.70
2018-09-29T05:30:27.193Z,3.75
2018-09-29T05:31:27.184Z,3.62
2018-09-29T05:32:27.173Z,3.72
2018-09-29T05:33:27.180Z,3.68
2018-09-29T05:34:27.150Z,3.65
2018-09-29T05:35:27.150Z,3.75
2018-09-29T05:36:27.129Z,3.68
2018-09-29T05:37:27.117Z,3.73
2018-09-29T05:38:27.132Z,3.65
2018-09-29T05:39:27.107Z,3.69
2018-09-29T05:40:27.108Z,3.70
2018-09-29T05:41:27.074Z,3.68
2018-09-29T05:42:27.067Z,3.66
2018-09-29T05:43:27.051Z,3.70
2018-09-29T05:44:27.057Z,3.73
2018-09-29T05:45:27.032Z,3.72
2018-09-29T05:46:27.022Z,3.72
2018-09-29T05:47:27.009Z,3.76
2018-09-29T05:48:27.009Z,3.72
2018-09-29T05:49:26.987Z,3.73
2018-09-29T05:50:26.978Z,3.75
2018-09-29T05:51:26.968Z,3.80
2018-09-29T05:52:26.966Z,3.72
2018-09-29T05:53:26.944Z,3.72
2018-09-29T05:54:26.933Z,3.86
2018-09-29T05:55:26.937Z,3.87
2018-09-29T05:56:26.926Z,3.86
2018-09-29T05:57:26.899Z,3.86
2018-09-29T05:58:26.888Z,3.94
2018-09-29T05:59:26.879Z,3.97
2018-09-29T06:00:26.888Z,3.90
2018-09-29T06:01:26.870Z,3.87
2018-09-29T06:02:26.845Z,3.90
2018-09-29T06:03:26.848Z,3.98
2018-09-29T06:04:26.823Z,4.00
2018-09-29T06:05:26.883Z,3.96
2018-09-29T06:06:26.816Z,3.96
2018-09-29T06:07:26.839Z,3.98
2018-09-29T06:08:26.781Z,4.12
2018-09-29T06:09:26.774Z,4.06
2018-09-29T06:10:26.788Z,4.12
2018-09-29T06:11:26.750Z,4.05
2018-09-29T06:12:26.735Z,4.09
2018-09-29T06:13:26.747Z,4.09
2018-09-29T06:14:26.715Z,4.11
2018-09-29T06:15:26.705Z,4.14
2018-09-29T06:16:26.694Z,4.26
2018-09-29T06:17:26.681Z,4.27
2018-09-29T06:18:26.671Z,4.32
2018-09-29T06:19:26.671Z,4.29
2018-09-29T06:20:26.650Z,4.36
2018-09-29T06:21:26.638Z,4.34
2018-09-29T06:22:26.628Z,4.44
2018-09-29T06:23:26.616Z,4.47
2018-09-29T06:24:26.619Z,4.50
2018-09-29T06:25:26.599Z,4.58
2018-09-29T06:26:26.597Z,4.59
2018-09-29T06:27:26.573Z,4.50
2018-09-29T06:28:26.563Z,4.60
2018-09-29T06:29:26.566Z,4.67
2018-09-29T06:30:26.541Z,4.69
2018-09-29T06:31:26.529Z,4.70
2018-09-29T06:32:26.520Z,4.69
2018-09-29T06:33:26.509Z,4.73
2018-09-29T06:34:26.517Z,4.84
2018-09-29T06:35:26.487Z,4.86
2018-09-29T06:36:26.476Z,4.82
2018-09-29T06:37:26.464Z,4.86
2018-09-29T06:38:26.456Z,4.92
2018-09-29T06:39:26.444Z,4.99
2018-09-29T06:40:26.441Z,5.04
2018-09-29T06:41:26.426Z,5.06
2018-09-29T06:42:26.412Z,5.06
2018-09-29T06:43:26.400Z,5.09
2018-09-29T06:44:26.389Z,5.17
2018-09-29T06:45:26.401Z,5.17
2018-09-29T06:46:26.366Z,5.25
2018-09-29T06:47:26.356Z,5.27
2018-09-29T06:48:26.346Z,5.38
2018-09-29T06:49:26.333Z,5.36
2018-09-29T06:50:26.325Z,5.48
2018-09-29T06:51:26.326Z,5.46
2018-09-29T06:52:26.300Z,5.48
2018-09-29T06:53:26.291Z,5.54
2018-09-29T06:54:26.297Z,5.57
2018-09-29T06:55:26.270Z,5.68
2018-09-29T06:56:26.274Z,5.75
2018-09-29T06:57:26.247Z,5.82
2018-09-29T06:58:26.234Z,5.86
2018-09-29T06:59:26.224Z,6.01
2018-09-29T07:00:26.217Z,6.03
2018-09-29T07:01:26.242Z,6.11
2018-09-29T07:02:26.191Z,6.11
2018-09-29T07:03:26.180Z,6.21
2018-09-29T07:04:26.170Z,6.28
2018-09-29T07:05:26.157Z,6.36
2018-09-29T07:06:26.147Z,6.40
2018-09-29T07:07:26.158Z,6.46
2018-09-29T07:08:26.137Z,6.62
2018-09-29T07:09:26.115Z,6.64
2018-09-29T07:10:26.103Z,6.67
2018-09-29T07:11:26.094Z,6.77
2018-09-29T07:12:26.103Z,6.77
2018-09-29T07:13:26.069Z,6.87
2018-09-29T07:14:26.059Z,7.06
2018-09-29T07:15:26.051Z,7.09
2018-09-29T07:16:26.037Z,7.24
2018-09-29T07:17:26.027Z,7.23
2018-09-29T07:18:26.033Z,7.31
2018-09-29T07:19:26.004Z,7.53
2018-09-29T07:20:25.993Z,7.60
2018-09-29T07:21:26.005Z,7.50
2018-09-29T07:22:25.976Z,7.63
2018-09-29T07:23:25.973Z,7.77
2018-09-29T07:24:25.990Z,7.75
2018-09-29T07:25:26.032Z,7.87
2018-09-29T07:26:25.931Z,8.04
2018-09-29T07:27:25.917Z,8.04
2018-09-29T07:28:25.908Z,8.05
2018-09-29T07:29:25.895Z,8.07
2018-09-29T07:30:25.910Z,8.01
2018-09-29T07:31:25.896Z,8.07
2018-09-29T07:32:25.865Z,8.10
2018-09-29T07:33:25.850Z,8.23
2018-09-29T07:34:25.849Z,8.40
2018-09-29T07:35:25.834Z,8.52
2018-09-29T07:36:25.817Z,8.80
2018-09-29T07:37:25.806Z,8.95
2018-09-29T07:38:25.813Z,9.15
2018-09-29T07:39:25.797Z,9.35
2018-09-29T07:40:25.774Z,9.42
2018-09-29T07:41:25.781Z,9.57
2018-09-29T07:42:25.754Z,9.64
2018-09-29T07:43:25.751Z,9.78
2018-09-29T07:44:25.925Z,9.93
2018-09-29T07:45:25.717Z,10.08
2018-09-29T07:46:25.713Z,10.25
2018-09-29T07:47:25.696Z,10.29
2018-09-29T07:48:25.703Z,10.41
2018-09-29T07:49:25.673Z,10.52
2018-09-29T07:50:25.674Z,10.63
2018-09-29T07:51:25.652Z,10.68
2018-09-29T07:52:25.641Z,10.79
2018-09-29T07:53:25.629Z,10.84
2018-09-29T07:54:25.618Z,10.82
2018-09-29T07:55:25.618Z,10.78
2018-09-29T07:56:25.612Z,10.78
2018-09-29T07:57:25.586Z,10.79
2018-09-29T07:58:25.576Z,10.82
2018-09-29T07:59:25.563Z,10.85
2018-09-29T08:00:25.551Z,10.92
2018-09-29T08:01:25.541Z,11.00
2018-09-29T08:02:25.541Z,11.02
2018-09-29T08:03:25.523Z,11.04
2018-09-29T08:04:25.508Z,10.94
2018-09-29T08:05:25.498Z,11.02
2018-09-29T08:06:25.556Z,11.06
2018-09-29T08:07:25.491Z,11.17
2018-09-29T08:08:25.468Z,11.18
2018-09-29T08:09:25.455Z,11.22
2018-09-29T08:10:25.445Z,11.19
2018-09-29T08:11:25.435Z,11.36
2018-09-29T08:12:25.518Z,11.37
2018-09-29T08:13:25.426Z,11.49
2018-09-29T08:14:25.417Z,11.61
2018-09-29T08:15:25.390Z,11.78
2018-09-29T08:16:25.378Z,11.79
2018-09-29T08:17:25.367Z,11.94
2018-09-29T08:18:25.355Z,12.12
2018-09-29T08:19:25.347Z,12.13
2018-09-29T08:20:25.908Z,12.07
2018-09-29T08:21:25.330Z,11.85
2018-09-29T08:22:25.313Z,11.72
2018-09-29T08:23:25.301Z,11.90
2018-09-29T08:24:25.339Z,12.05
2018-09-29T08:25:25.280Z,12.12
2018-09-29T08:26:25.269Z,11.98
2018-09-29T08:27:25.273Z,11.86
2018-09-29T08:28:25.269Z,11.96
2018-09-29T08:29:25.236Z,12.10
2018-09-29T08:30:25.225Z,12.07
2018-09-29T08:31:25.224Z,11.99
2018-09-29T08:32:25.304Z,12.01
2018-09-29T08:33:25.194Z,12.02
2018-09-29T08:34:25.194Z,11.91
2018-09-29T08:35:25.182Z,12.16
2018-09-29T08:36:25.159Z,12.31
2018-09-29T08:37:25.148Z,12.47
2018-09-29T08:38:25.138Z,12.38
2018-09-29T08:39:25.127Z,12.41
2018-09-29T08:40:25.168Z,12.60
2018-09-29T08:41:25.108Z,12.68
2018-09-29T08:42:25.094Z,12.71
2018-09-29T08:43:25.083Z,12.75
2018-09-29T08:44:25.074Z,12.86
2018-09-29T08:45:25.098Z,13.00
2018-09-29T08:46:25.052Z,13.17
2018-09-29T08:47:25.041Z,13.45
2018-09-29T08:48:25.028Z,13.69
2018-09-29T08:49:25.018Z,13.91
2018-09-29T08:50:25.006Z,14.07
2018-09-29T08:51:25.008Z,14.25
2018-09-29T08:52:24.985Z,14.32
2018-09-29T08:53:25.051Z,14.47
2018-09-29T08:54:24.965Z,14.52
2018-09-29T08:55:24.991Z,14.52
2018-09-29T08:56:24.955Z,14.70
2018-09-29T08:57:24.930Z,14.84
2018-09-29T08:58:24.921Z,14.91
2018-09-29T08:59:24.939Z,15.01
2018-09-29T09:00:24.900Z,15.10
2018-09-29T09:01:24.887Z,14.98
2018-09-29T09:02:24.886Z,15.10
2018-09-29T09:03:24.865Z,15.07
2018-09-29T09:04:24.856Z,15.06
2018-09-29T09:05:24.842Z,14.83
2018-09-29T09:06:24.831Z,14.77
2018-09-29T09:07:24.845Z,14.84
2018-09-29T09:08:24.810Z,14.88
2018-09-29T09:09:24.849Z,15.02
2018-09-29T09:10:24.961Z,15.10
2018-09-29T09:11:24.802Z,15.27
2018-09-29T09:12:24.767Z,15.21
2018-09-29T09:13:24.754Z,15.25
2018-09-29T09:14:24.744Z,15.34
2018-09-29T09:15:24.732Z,15.35
2018-09-29T09:16:24.730Z,15.27
2018-09-29T09:17:24.712Z,15.21
2018-09-29T09:18:24.712Z,15.19
2018-09-29T09:19:24.688Z,15.27
2018-09-29T09:20:24.679Z,15.20
2018-09-29T09:21:24.673Z,14.96
2018-09-29T09:22:24.655Z,14.95
2018-09-29T09:23:24.657Z,15.07
2018-09-29T09:24:24.655Z,15.20
2018-09-29T09:25:24.630Z,15.34
2018-09-29T09:26:24.613Z,15.46
2018-09-29T09:27:24.602Z,15.57
2018-09-29T09:28:24.615Z,15.76
2018-09-29T09:29:24.596Z,15.86
2018-09-29T09:30:24.694Z,16.12
2018-09-29T09:31:24.563Z,16.24
2018-09-29T09:32:24.551Z,16.35
2018-09-29T09:33:24.539Z,16.43
2018-09-29T09:34:24.529Z,16.38
2018-09-29T09:35:24.536Z,16.41
2018-09-29T09:36:24.528Z,16.50
2018-09-29T09:37:24.495Z,16.66
2018-09-29T09:38:24.483Z,16.67
2018-09-29T09:39:24.475Z,16.86
2018-09-29T09:40:24.462Z,16.94
2018-09-29T09:41:24.475Z,16.93
2018-09-29T09:42:24.442Z,16.94
2018-09-29T09:43:24.436Z,16.94
2018-09-29T09:44:24.421Z,17.01
2018-09-29T09:45:24.411Z,17.06
2018-09-29T09:46:24.400Z,17.08
2018-09-29T09:47:24.402Z,17.25
2018-09-29T09:48:24.378Z,17.31
2018-09-29T09:49:24.415Z,17.22
2018-09-29T09:50:24.358Z,17.16
2018-09-29T09:51:24.347Z,17.06
2018-09-29T09:52:24.347Z,17.14
2018-09-29T09:53:24.327Z,17.08
2018-09-29T09:54:24.315Z,17.04
2018-09-29T09:55:24.303Z,17.18
2018-09-29T09:56:24.320Z,17.31
2018-09-29T09:57:24.295Z,17.48
2018-09-29T09:58:24.273Z,17.49
2018-09-29T09:59:24.267Z,17.55
2018-09-29T10:00:24.251Z,17.55
2018-09-29T10:01:24.242Z,17.54
2018-09-29T10:02:24.242Z,17.55
2018-09-29T10:03:24.219Z,17.48
2018-09-29T10:04:24.210Z,17.46
2018-09-29T10:05:24.199Z,17.31
2018-09-29T10:06:24.232Z,17.26
2018-09-29T10:07:24.192Z,17.15
2018-09-29T10:08:24.168Z,17.18
2018-09-29T10:09:24.164Z,17.19
2018-09-29T10:10:24.147Z,17.38
2018-09-29T10:11:24.137Z,17.59
2018-09-29T10:12:24.142Z,17.79
2018-09-29T10:13:24.137Z,17.84
2018-09-29T10:14:24.728Z,17.95
2018-09-29T10:15:24.090Z,17.95
2018-09-29T10:16:24.079Z,17.77
2018-09-29T10:17:24.115Z,17.62
2018-09-29T10:18:24.059Z,17.38
2018-09-29T10:19:24.059Z,17.16
2018-09-29T10:20:24.035Z,17.08
2018-09-29T10:21:24.023Z,17.14
2018-09-29T10:22:24.013Z,17.26
2018-09-29T10:23:24.050Z,17.43
2018-09-29T10:24:23.992Z,17.70
2018-09-29T10:25:23.996Z,17.89
2018-09-29T10:26:23.971Z,17.64
2018-09-29T10:27:23.960Z,17.30
2018-09-29T10:28:23.953Z,17.25
2018-09-29T10:29:23.937Z,17.22
2018-09-29T10:30:23.940Z,17.19
2018-09-29T10:31:23.921Z,17.40
2018-09-29T10:32:23.919Z,17.68
2018-09-29T10:33:23.896Z,17.86
2018-09-29T10:34:23.885Z,17.93
2018-09-29T10:35:23.876Z,17.79
2018-09-29T10:36:24.037Z,17.51
2018-09-29T10:37:23.852Z,17.08
2018-09-29T10:38:23.844Z,16.42
2018-09-29T10:39:23.831Z,16.39
2018-09-29T10:40:23.820Z,16.56
2018-09-29T10:41:23.804Z,16.76
2018-09-29T10:42:23.813Z,17.12
2018-09-29T10:43:23.784Z,17.30
2018-09-29T10:44:23.775Z,17.54
2018-09-29T10:45:23.763Z,17.70
2018-09-29T10:46:23.767Z,17.71
2018-09-29T10:47:23.741Z,17.79
2018-09-29T10:48:23.730Z,17.48
2018-09-29T10:49:23.721Z,17.22
2018-09-29T10:50:23.707Z,16.68
2018-09-29T10:51:23.719Z,16.35
2018-09-29T10:52:23.688Z,16.11
2018-09-29T10:53:23.674Z,16.01
2018-09-29T10:54:23.662Z,16.43
2018-09-29T10:55:23.652Z,16.79
2018-09-29T10:56:23.661Z,17.08
2018-09-29T10:57:24.442Z,17.26
2018-09-29T10:58:23.617Z,17.51
2018-09-29T10:59:23.607Z,17.74
2018-09-29T11:00:23.596Z,17.81
2018-09-29T11:01:23.589Z,17.34
2018-09-29T11:02:23.594Z,17.16
2018-09-29T11:03:23.564Z,17.23
2018-09-29T11:04:23.554Z,17.26
2018-09-29T11:05:23.545Z,17.38
2018-09-29T11:06:23.537Z,17.66
2018-09-29T11:07:23.518Z,17.84
2018-09-29T11:08:23.523Z,17.95
2018-09-29T11:09:23.501Z,17.86
2018-09-29T11:10:23.488Z,17.95
2018-09-29T11:11:23.478Z,18.02
2018-09-29T11:12:23.465Z,18.12
2018-09-29T11:13:23.477Z,18.15
2018-09-29T11:14:23.508Z,18.20
2018-09-29T11:15:23.434Z,18.23
2018-09-29T11:16:23.425Z,18.26
2018-09-29T11:17:23.413Z,18.12
2018-09-29T11:18:23.447Z,18.10
2018-09-29T11:19:23.392Z,17.95
2018-09-29T11:20:23.381Z,17.78
2018-09-29T11:21:23.370Z,17.62
2018-09-29T11:22:23.359Z,17.59
2018-09-29T11:23:23.349Z,17.49
2018-09-29T11:24:23.347Z,17.59
2018-09-29T11:25:23.324Z,17.71
2018-09-29T11:26:23.328Z,17.81
2018-09-29T11:27:23.304Z,17.90
2018-09-29T11:28:23.295Z,17.93
2018-09-29T11:29:23.283Z,17.95
2018-09-29T11:30:23.290Z,17.92
2018-09-29T11:31:23.263Z,17.99
2018-09-29T11:32:23.255Z,18.05
2018-09-29T11:33:23.243Z,18.10
2018-09-29T11:34:23.467Z,18.17
2018-09-29T11:35:23.241Z,18.15
2018-09-29T11:36:23.225Z,18.27
2018-09-29T11:37:23.200Z,18.17
2018-09-29T11:38:23.191Z,18.18
2018-09-29T11:39:23.214Z,18.25
2018-09-29T11:40:23.208Z,18.21
2018-09-29T11:41:23.178Z,18.23
2018-09-29T11:42:23.154Z,18.29
2018-09-29T11:43:23.138Z,18.29
2018-09-29T11:44:23.128Z,18.47
2018-09-29T11:45:23.116Z,18.51
2018-09-29T11:46:23.105Z,18.65
2018-09-29T11:47:23.109Z,18.73
2018-09-29T11:48:23.081Z,18.90
2018-09-29T11:49:23.072Z,18.92
2018-09-29T11:50:23.061Z,18.91
2018-09-29T11:51:23.068Z,18.94
2018-09-29T11:52:23.038Z,18.82
2018-09-29T11:53:23.027Z,18.95
2018-09-29T11:54:23.015Z,19.00
2018-09-29T11:55:23.005Z,19.10
2018-09-29T11:56:23.094Z,19.18
2018-09-29T11:57:22.998Z,19.26
2018-09-29T11:58:22.972Z,19.39
2018-09-29T11:59:22.960Z,19.47
2018-09-29T12:00:22.950Z,19.54
2018-09-29T12:01:22.951Z,19.51
2018-09-29T12:02:22.994Z,19.50
2018-09-29T12:03:22.916Z,19.50
2018-09-29T12:04:22.905Z,19.50
2018-09-29T12:05:22.894Z,19.46
2018-09-29T12:06:22.957Z,19.40
2018-09-29T12:07:22.915Z,19.51
2018-09-29T12:08:22.860Z,19.41
2018-09-29T12:09:22.849Z,19.36
2018-09-29T12:10:23.458Z,19.46
2018-09-29T12:11:22.830Z,19.51
2018-09-29T12:12:22.857Z,19.25
2018-09-29T12:13:22.806Z,18.91
2018-09-29T12:14:22.795Z,18.42
2018-09-29T12:15:22.783Z,18.05
2018-09-29T12:16:22.772Z,17.99
2018-09-29T12:17:22.761Z,17.93
2018-09-29T12:18:22.783Z,17.84
2018-09-29T12:19:22.739Z,17.97
2018-09-29T12:20:22.728Z,18.17
2018-09-29T12:21:22.721Z,18.25
2018-09-29T12:22:22.782Z,18.41
2018-09-29T12:23:22.711Z,18.48
2018-09-29T12:24:22.726Z,18.54
2018-09-29T12:25:22.676Z,18.75
2018-09-29T12:26:22.665Z,18.69
2018-09-29T12:27:24.920Z,18.92
2018-09-29T12:28:22.644Z,18.94
2018-09-29T12:29:22.696Z,18.99
2018-09-29T12:30:22.636Z,19.00
2018-09-29T12:31:22.611Z,18.90
2018-09-29T12:32:22.601Z,18.57
2018-09-29T12:33:22.591Z,18.41
2018-09-29T12:34:22.579Z,18.29
2018-09-29T12:35:22.583Z,18.20
2018-09-29T12:36:22.557Z,17.93
2018-09-29T12:37:22.663Z,18.02
2018-09-29T12:38:22.537Z,17.84
2018-09-29T12:39:22.525Z,17.74
2018-09-29T12:40:22.528Z,17.96
2018-09-29T12:41:22.503Z,18.12
2018-09-29T12:42:22.495Z,18.33
2018-09-29T12:43:22.480Z,18.52
2018-09-29T12:44:22.508Z,18.58
2018-09-29T12:45:22.475Z,18.72
2018-09-29T12:46:22.460Z,18.84
2018-09-29T12:47:22.450Z,18.98
2018-09-29T12:48:22.425Z,18.98
2018-09-29T12:49:22.415Z,18.85
2018-09-29T12:50:22.403Z,18.72
2018-09-29T12:51:22.416Z,18.75
2018-09-29T12:52:22.383Z,18.90
2018-09-29T12:53:22.373Z,19.16
2018-09-29T12:54:22.384Z,19.26
2018-09-29T12:55:22.366Z,19.36
2018-09-29T12:56:22.342Z,19.43
2018-09-29T12:57:22.343Z,19.56
2018-09-29T12:58:22.318Z,19.62
2018-09-29T12:59:22.309Z,19.66
2018-09-29T13:00:22.299Z,19.77
2018-09-29T13:01:22.299Z,19.81
2018-09-29T13:02:22.289Z,19.86
2018-09-29T13:03:22.266Z,19.81
2018-09-29T13:04:22.251Z,19.80
2018-09-29T13:05:22.242Z,19.86
2018-09-29T13:06:22.231Z,19.80
2018-09-29T13:07:22.242Z,19.78